West Kingston, Rhode Island
Current Conditions -  °F | °C
As of 2:53 PM on Thursday 23 Oct 2014 (Local Time) from KUUU Reporting Station
Overcast Overcast  
Wind Chill: 14°   Ceiling: 900
Heat Index: 14°   Visibility: 10mi
Dew Point: 12°   Wind: 13mph
Humidity: 84%   Direction: 350°N
Pressure: 29.53"   Gusts: 25mph
Location:  41.48°N, 71.55°W
Report Text: KUUU 231853Z AUTO 35011G22KT 10SM OVC009 14/12 A2953 RMK AO2 SLP999 T01440117
Loading
Personal Weather Stations






























Interactive Weather Map
Tropical Storm Tracking
New forecast layout! Learn more

10-Day Weather Forecast

Advertisements
Track Severe Weather on mobile